sensor_id;sensor_type;location;lat;lon;timestamp;P1;durP1;ratioP1;P2;durP2;ratioP2
22632;SDS011;11483;55.828;37.488;2022-09-27T00:01:01;634.45;;;19.98;;
22632;SDS011;11483;55.828;37.488;2022-09-27T00:03:28;349.67;;;12.40;;
22632;SDS011;11483;55.828;37.488;2022-09-27T00:06:11;548.00;;;20.92;;
22632;SDS011;11483;55.828;37.488;2022-09-27T00:08:44;310.83;;;12.02;;
22632;SDS011;11483;55.828;37.488;2022-09-27T00:11:12;282.25;;;12.38;;
22632;SDS011;11483;55.828;37.488;2022-09-27T00:13:46;418.63;;;16.38;;
22632;SDS011;11483;55.828;37.488;2022-09-27T00:16:11;428.48;;;14.90;;
22632;SDS011;11483;55.828;37.488;2022-09-27T00:18:37;28.80;;;4.70;;
22632;SDS011;11483;55.828;37.488;2022-09-27T00:21:04;16.17;;;4.03;;
22632;SDS011;11483;55.828;37.488;2022-09-27T00:23:35;17.08;;;4.57;;
22632;SDS011;11483;55.828;37.488;2022-09-27T00:26:02;65.28;;;5.43;;
22632;SDS011;11483;55.828;37.488;2022-09-27T00:28:29;15.63;;;4.38;;
22632;SDS011;11483;55.828;37.488;2022-09-27T00:30:55;36.00;;;5.43;;
22632;SDS011;11483;55.828;37.488;2022-09-27T00:33:21;12.23;;;4.43;;
22632;SDS011;11483;55.828;37.488;2022-09-27T00:35:47;13.15;;;4.90;;
22632;SDS011;11483;55.828;37.488;2022-09-27T00:38:13;61.53;;;6.80;;
22632;SDS011;11483;55.828;37.488;2022-09-27T00:40:40;667.13;;;25.00;;
22632;SDS011;11483;55.828;37.488;2022-09-27T00:43:33;738.42;;;29.23;;
22632;SDS011;11483;55.828;37.488;2022-09-27T00:46:07;88.00;;;6.85;;
22632;SDS011;11483;55.828;37.488;2022-09-27T00:48:33;510.15;;;15.05;;
22632;SDS011;11483;55.828;37.488;2022-09-27T00:51:01;111.97;;;6.78;;
22632;SDS011;11483;55.828;37.488;2022-09-27T00:53:33;103.10;;;6.70;;
22632;SDS011;11483;55.828;37.488;2022-09-27T00:56:19;260.02;;;9.02;;
22632;SDS011;11483;55.828;37.488;2022-09-27T00:58:50;339.80;;;11.00;;
22632;SDS011;11483;55.828;37.488;2022-09-27T01:01:23;425.50;;;13.70;;
22632;SDS011;11483;55.828;37.488;2022-09-27T01:03:58;356.40;;;10.98;;
22632;SDS011;11483;55.828;37.488;2022-09-27T01:06:30;424.23;;;12.43;;
22632;SDS011;11483;55.828;37.488;2022-09-27T01:08:57;597.80;;;16.80;;
22632;SDS011;11483;55.828;37.488;2022-09-27T01:28:08;609.60;;;17.70;;
22632;SDS011;11483;55.828;37.488;2022-09-27T01:30:47;597.78;;;15.65;;
22632;SDS011;11483;55.828;37.488;2022-09-27T01:33:23;433.73;;;13.73;;
22632;SDS011;11483;55.828;37.488;2022-09-27T01:44:06;475.48;;;13.27;;
22632;SDS011;11483;55.828;37.488;2022-09-27T01:46:46;556.08;;;15.13;;
22632;SDS011;11483;55.828;37.488;2022-09-27T01:49:17;421.67;;;12.13;;
22632;SDS011;11483;55.828;37.488;2022-09-27T01:51:56;439.35;;;12.43;;
22632;SDS011;11483;55.828;37.488;2022-09-27T01:54:39;607.78;;;19.10;;
22632;SDS011;11483;55.828;37.488;2022-09-27T01:57:11;420.50;;;12.32;;
22632;SDS011;11483;55.828;37.488;2022-09-27T01:59:51;540.75;;;15.73;;
22632;SDS011;11483;55.828;37.488;2022-09-27T02:02:21;617.05;;;17.58;;
22632;SDS011;11483;55.828;37.488;2022-09-27T02:04:49;513.17;;;14.65;;
22632;SDS011;11483;55.828;37.488;2022-09-27T02:07:24;503.88;;;13.32;;
22632;SDS011;11483;55.828;37.488;2022-09-27T02:09:59;478.50;;;13.93;;
22632;SDS011;11483;55.828;37.488;2022-09-27T02:12:53;368.92;;;10.60;;
22632;SDS011;11483;55.828;37.488;2022-09-27T02:20:19;417.25;;;11.88;;
22632;SDS011;11483;55.828;37.488;2022-09-27T02:23:21;250.88;;;9.00;;
22632;SDS011;11483;55.828;37.488;2022-09-27T02:29:09;145.75;;;5.72;;
22632;SDS011;11483;55.828;37.488;2022-09-27T02:31:54;280.67;;;9.00;;
22632;SDS011;11483;55.828;37.488;2022-09-27T02:34:27;171.70;;;6.18;;
22632;SDS011;11483;55.828;37.488;2022-09-27T02:37:02;337.27;;;10.57;;
22632;SDS011;11483;55.828;37.488;2022-09-27T02:39:28;250.70;;;8.48;;
22632;SDS011;11483;55.828;37.488;2022-09-27T02:41:54;333.98;;;9.52;;
22632;SDS011;11483;55.828;37.488;2022-09-27T02:44:22;138.48;;;6.20;;
22632;SDS011;11483;55.828;37.488;2022-09-27T02:57:35;362.52;;;10.30;;
22632;SDS011;11483;55.828;37.488;2022-09-27T03:00:13;278.60;;;10.48;;
22632;SDS011;11483;55.828;37.488;2022-09-27T03:05:32;351.75;;;9.73;;
22632;SDS011;11483;55.828;37.488;2022-09-27T03:08:08;393.67;;;12.10;;
22632;SDS011;11483;55.828;37.488;2022-09-27T03:10:36;222.82;;;7.50;;
22632;SDS011;11483;55.828;37.488;2022-09-27T03:13:01;318.55;;;10.57;;
22632;SDS011;11483;55.828;37.488;2022-09-27T03:15:29;220.75;;;8.77;;
22632;SDS011;11483;55.828;37.488;2022-09-27T03:17:55;311.98;;;9.45;;
22632;SDS011;11483;55.828;37.488;2022-09-27T03:20:21;343.80;;;11.18;;
22632;SDS011;11483;55.828;37.488;2022-09-27T03:22:47;254.25;;;9.15;;
22632;SDS011;11483;55.828;37.488;2022-09-27T03:25:13;216.73;;;8.90;;
22632;SDS011;11483;55.828;37.488;2022-09-27T03:27:39;245.27;;;9.02;;
22632;SDS011;11483;55.828;37.488;2022-09-27T03:30:05;338.33;;;11.07;;
22632;SDS011;11483;55.828;37.488;2022-09-27T03:32:31;189.85;;;6.78;;
22632;SDS011;11483;55.828;37.488;2022-09-27T03:34:58;108.75;;;6.32;;
22632;SDS011;11483;55.828;37.488;2022-09-27T03:37:24;186.77;;;8.02;;
22632;SDS011;11483;55.828;37.488;2022-09-27T03:39:53;93.55;;;6.10;;
22632;SDS011;11483;55.828;37.488;2022-09-27T03:42:19;113.13;;;5.80;;
22632;SDS011;11483;55.828;37.488;2022-09-27T03:44:45;379.02;;;12.25;;
22632;SDS011;11483;55.828;37.488;2022-09-27T03:47:11;182.35;;;7.68;;
22632;SDS011;11483;55.828;37.488;2022-09-27T03:49:37;204.07;;;8.32;;
22632;SDS011;11483;55.828;37.488;2022-09-27T03:52:03;129.60;;;6.90;;
22632;SDS011;11483;55.828;37.488;2022-09-27T03:54:29;435.15;;;13.27;;
22632;SDS011;11483;55.828;37.488;2022-09-27T03:56:55;354.52;;;11.10;;
22632;SDS011;11483;55.828;37.488;2022-09-27T03:59:20;353.45;;;10.98;;
22632;SDS011;11483;55.828;37.488;2022-09-27T04:01:46;508.55;;;16.40;;
22632;SDS011;11483;55.828;37.488;2022-09-27T04:04:12;342.77;;;11.35;;
22632;SDS011;11483;55.828;37.488;2022-09-27T04:06:39;711.75;;;19.95;;
22632;SDS011;11483;55.828;37.488;2022-09-27T04:09:05;404.95;;;13.73;;
22632;SDS011;11483;55.828;37.488;2022-09-27T04:11:31;303.75;;;11.30;;
22632;SDS011;11483;55.828;37.488;2022-09-27T04:13:56;196.68;;;9.15;;
22632;SDS011;11483;55.828;37.488;2022-09-27T04:16:22;136.27;;;7.15;;
22632;SDS011;11483;55.828;37.488;2022-09-27T04:18:49;352.15;;;15.40;;
22632;SDS011;11483;55.828;37.488;2022-09-27T04:21:15;83.25;;;6.35;;
22632;SDS011;11483;55.828;37.488;2022-09-27T04:23:41;113.57;;;6.90;;
22632;SDS011;11483;55.828;37.488;2022-09-27T04:26:07;203.80;;;9.45;;
22632;SDS011;11483;55.828;37.488;2022-09-27T04:28:33;27.13;;;4.95;;
22632;SDS011;11483;55.828;37.488;2022-09-27T04:30:59;96.63;;;6.95;;
22632;SDS011;11483;55.828;37.488;2022-09-27T04:33:25;23.92;;;5.25;;
22632;SDS011;11483;55.828;37.488;2022-09-27T04:35:51;121.28;;;7.13;;
22632;SDS011;11483;55.828;37.488;2022-09-27T04:38:35;246.07;;;10.18;;
22632;SDS011;11483;55.828;37.488;2022-09-27T04:41:01;90.78;;;7.13;;
22632;SDS011;11483;55.828;37.488;2022-09-27T04:43:27;326.70;;;11.90;;
22632;SDS011;11483;55.828;37.488;2022-09-27T04:45:53;164.98;;;10.65;;
22632;SDS011;11483;55.828;37.488;2022-09-27T04:48:19;41.65;;;5.95;;
22632;SDS011;11483;55.828;37.488;2022-09-27T04:50:45;38.88;;;7.20;;
22632;SDS011;11483;55.828;37.488;2022-09-27T04:53:12;174.85;;;14.25;;
22632;SDS011;11483;55.828;37.488;2022-09-27T04:55:39;204.75;;;16.00;;
22632;SDS011;11483;55.828;37.488;2022-09-27T04:58:10;133.85;;;13.55;;
22632;SDS011;11483;55.828;37.488;2022-09-27T05:00:36;198.50;;;14.80;;
22632;SDS011;11483;55.828;37.488;2022-09-27T05:03:01;133.38;;;13.40;;
22632;SDS011;11483;55.828;37.488;2022-09-27T05:05:28;100.15;;;14.02;;
22632;SDS011;11483;55.828;37.488;2022-09-27T05:07:53;142.23;;;13.90;;
22632;SDS011;11483;55.828;37.488;2022-09-27T05:10:19;115.38;;;14.98;;
22632;SDS011;11483;55.828;37.488;2022-09-27T05:12:45;265.55;;;18.02;;
22632;SDS011;11483;55.828;37.488;2022-09-27T05:15:11;107.88;;;14.85;;
22632;SDS011;11483;55.828;37.488;2022-09-27T05:17:37;51.90;;;13.82;;
22632;SDS011;11483;55.828;37.488;2022-09-27T05:20:03;76.15;;;14.05;;
22632;SDS011;11483;55.828;37.488;2022-09-27T05:22:29;57.60;;;13.98;;
22632;SDS011;11483;55.828;37.488;2022-09-27T05:24:55;46.42;;;12.57;;
22632;SDS011;11483;55.828;37.488;2022-09-27T05:27:21;60.55;;;12.02;;
22632;SDS011;11483;55.828;37.488;2022-09-27T05:29:47;65.63;;;12.07;;
22632;SDS011;11483;55.828;37.488;2022-09-27T05:32:13;76.45;;;12.40;;
22632;SDS011;11483;55.828;37.488;2022-09-27T05:34:39;50.67;;;12.02;;
22632;SDS011;11483;55.828;37.488;2022-09-27T05:37:05;64.55;;;12.25;;
22632;SDS011;11483;55.828;37.488;2022-09-27T05:39:31;38.92;;;11.43;;
22632;SDS011;11483;55.828;37.488;2022-09-27T05:41:58;41.05;;;11.00;;
22632;SDS011;11483;55.828;37.488;2022-09-27T05:44:31;63.92;;;12.02;;
22632;SDS011;11483;55.828;37.488;2022-09-27T05:46:59;27.52;;;9.98;;
22632;SDS011;11483;55.828;37.488;2022-09-27T05:51:54;28.70;;;10.50;;
22632;SDS011;11483;55.828;37.488;2022-09-27T05:54:20;24.80;;;10.27;;
22632;SDS011;11483;55.828;37.488;2022-09-27T05:56:46;25.27;;;9.93;;
22632;SDS011;11483;55.828;37.488;2022-09-27T05:59:12;24.38;;;10.25;;
22632;SDS011;11483;55.828;37.488;2022-09-27T06:01:37;27.13;;;9.95;;
22632;SDS011;11483;55.828;37.488;2022-09-27T06:04:03;21.35;;;11.00;;
22632;SDS011;11483;55.828;37.488;2022-09-27T06:06:30;21.27;;;10.48;;
22632;SDS011;11483;55.828;37.488;2022-09-27T06:08:58;20.30;;;10.77;;
22632;SDS011;11483;55.828;37.488;2022-09-27T06:11:25;27.40;;;10.82;;
22632;SDS011;11483;55.828;37.488;2022-09-27T06:13:51;24.30;;;10.38;;
22632;SDS011;11483;55.828;37.488;2022-09-27T06:16:18;26.10;;;10.27;;
22632;SDS011;11483;55.828;37.488;2022-09-27T06:18:44;25.67;;;10.88;;
22632;SDS011;11483;55.828;37.488;2022-09-27T06:21:10;26.10;;;11.43;;
22632;SDS011;11483;55.828;37.488;2022-09-27T06:23:37;29.02;;;12.38;;
22632;SDS011;11483;55.828;37.488;2022-09-27T06:26:04;27.10;;;10.73;;
22632;SDS011;11483;55.828;37.488;2022-09-27T06:28:32;22.80;;;10.95;;
22632;SDS011;11483;55.828;37.488;2022-09-27T06:31:01;25.23;;;10.07;;
22632;SDS011;11483;55.828;37.488;2022-09-27T06:33:29;26.92;;;10.68;;
22632;SDS011;11483;55.828;37.488;2022-09-27T06:35:56;25.42;;;10.50;;
22632;SDS011;11483;55.828;37.488;2022-09-27T06:40:51;37.58;;;10.82;;
22632;SDS011;11483;55.828;37.488;2022-09-27T06:43:18;28.42;;;11.27;;
22632;SDS011;11483;55.828;37.488;2022-09-27T06:45:45;29.48;;;12.25;;
22632;SDS011;11483;55.828;37.488;2022-09-27T06:48:12;25.13;;;11.73;;
22632;SDS011;11483;55.828;37.488;2022-09-27T06:50:40;30.60;;;12.50;;
22632;SDS011;11483;55.828;37.488;2022-09-27T06:53:11;33.17;;;12.82;;
22632;SDS011;11483;55.828;37.488;2022-09-27T06:55:39;28.27;;;13.88;;
22632;SDS011;11483;55.828;37.488;2022-09-27T06:58:06;22.08;;;12.10;;
22632;SDS011;11483;55.828;37.488;2022-09-27T07:00:52;29.42;;;11.82;;
22632;SDS011;11483;55.828;37.488;2022-09-27T07:08:24;24.67;;;12.03;;
22632;SDS011;11483;55.828;37.488;2022-09-27T07:10:54;28.38;;;10.27;;
22632;SDS011;11483;55.828;37.488;2022-09-27T07:13:21;34.30;;;11.57;;
22632;SDS011;11483;55.828;37.488;2022-09-27T07:15:47;26.75;;;12.07;;
22632;SDS011;11483;55.828;37.488;2022-09-27T07:18:13;19.70;;;9.93;;
22632;SDS011;11483;55.828;37.488;2022-09-27T07:20:39;25.58;;;9.18;;
22632;SDS011;11483;55.828;37.488;2022-09-27T07:23:06;31.17;;;11.73;;
22632;SDS011;11483;55.828;37.488;2022-09-27T07:25:32;25.17;;;11.50;;
22632;SDS011;11483;55.828;37.488;2022-09-27T07:28:02;34.05;;;14.80;;
22632;SDS011;11483;55.828;37.488;2022-09-27T07:30:31;29.20;;;14.10;;
22632;SDS011;11483;55.828;37.488;2022-09-27T07:32:58;34.78;;;14.18;;
22632;SDS011;11483;55.828;37.488;2022-09-27T07:35:25;31.58;;;14.50;;
22632;SDS011;11483;55.828;37.488;2022-09-27T07:37:52;26.05;;;13.05;;
22632;SDS011;11483;55.828;37.488;2022-09-27T07:40:19;29.55;;;12.82;;
22632;SDS011;11483;55.828;37.488;2022-09-27T07:42:45;27.90;;;13.15;;
22632;SDS011;11483;55.828;37.488;2022-09-27T07:45:12;28.00;;;13.60;;
22632;SDS011;11483;55.828;37.488;2022-09-27T07:47:38;28.42;;;14.60;;
22632;SDS011;11483;55.828;37.488;2022-09-27T07:50:06;27.67;;;13.77;;
22632;SDS011;11483;55.828;37.488;2022-09-27T07:52:38;32.38;;;12.95;;
22632;SDS011;11483;55.828;37.488;2022-09-27T07:55:06;28.25;;;13.55;;
22632;SDS011;11483;55.828;37.488;2022-09-27T07:57:33;27.23;;;12.93;;
22632;SDS011;11483;55.828;37.488;2022-09-27T07:59:59;26.00;;;13.30;;
22632;SDS011;11483;55.828;37.488;2022-09-27T08:02:26;27.17;;;13.32;;
22632;SDS011;11483;55.828;37.488;2022-09-27T08:04:52;29.60;;;12.82;;
22632;SDS011;11483;55.828;37.488;2022-09-27T08:07:18;25.25;;;13.77;;
22632;SDS011;11483;55.828;37.488;2022-09-27T08:09:44;26.20;;;12.27;;
22632;SDS011;11483;55.828;37.488;2022-09-27T08:12:10;26.55;;;13.95;;
22632;SDS011;11483;55.828;37.488;2022-09-27T08:14:36;22.88;;;12.77;;
22632;SDS011;11483;55.828;37.488;2022-09-27T08:17:02;31.42;;;13.50;;
22632;SDS011;11483;55.828;37.488;2022-09-27T08:19:34;32.72;;;13.18;;
22632;SDS011;11483;55.828;37.488;2022-09-27T08:22:00;33.65;;;13.45;;
22632;SDS011;11483;55.828;37.488;2022-09-27T08:24:26;32.88;;;13.73;;
22632;SDS011;11483;55.828;37.488;2022-09-27T08:26:53;29.00;;;13.05;;
22632;SDS011;11483;55.828;37.488;2022-09-27T08:46:48;20.25;;;11.75;;
22632;SDS011;11483;55.828;37.488;2022-09-27T08:52:39;20.97;;;10.80;;
22632;SDS011;11483;55.828;37.488;2022-09-27T08:55:52;23.27;;;11.20;;
22632;SDS011;11483;55.828;37.488;2022-09-27T08:58:01;22.60;;;11.98;;
22632;SDS011;11483;55.828;37.488;2022-09-27T09:03:00;22.10;;;11.45;;
22632;SDS011;11483;55.828;37.488;2022-09-27T09:05:28;21.15;;;11.88;;
22632;SDS011;11483;55.828;37.488;2022-09-27T09:17:13;21.00;;;11.23;;
22632;SDS011;11483;55.828;37.488;2022-09-27T09:33:42;17.60;;;9.18;;
22632;SDS011;11483;55.828;37.488;2022-09-27T09:36:22;12.75;;;8.52;;
22632;SDS011;11483;55.828;37.488;2022-09-27T09:38:57;15.77;;;8.55;;
22632;SDS011;11483;55.828;37.488;2022-09-27T09:41:30;15.93;;;8.60;;
22632;SDS011;11483;55.828;37.488;2022-09-27T10:00:34;15.80;;;9.18;;
22632;SDS011;11483;55.828;37.488;2022-09-27T10:03:02;15.45;;;8.15;;
22632;SDS011;11483;55.828;37.488;2022-09-27T10:05:28;20.57;;;9.97;;
22632;SDS011;11483;55.828;37.488;2022-09-27T10:07:56;14.55;;;9.15;;
22632;SDS011;11483;55.828;37.488;2022-09-27T10:10:24;18.60;;;8.60;;
22632;SDS011;11483;55.828;37.488;2022-09-27T10:12:50;18.30;;;8.60;;
22632;SDS011;11483;55.828;37.488;2022-09-27T10:15:17;22.10;;;9.07;;
22632;SDS011;11483;55.828;37.488;2022-09-27T10:17:47;15.93;;;8.13;;
22632;SDS011;11483;55.828;37.488;2022-09-27T10:22:55;20.13;;;8.80;;
22632;SDS011;11483;55.828;37.488;2022-09-27T10:25:29;17.42;;;8.57;;
22632;SDS011;11483;55.828;37.488;2022-09-27T10:28:24;24.95;;;7.95;;
22632;SDS011;11483;55.828;37.488;2022-09-27T10:31:09;15.13;;;7.40;;
22632;SDS011;11483;55.828;37.488;2022-09-27T10:36:26;13.48;;;6.95;;
22632;SDS011;11483;55.828;37.488;2022-09-27T10:38:55;14.98;;;8.13;;
22632;SDS011;11483;55.828;37.488;2022-09-27T10:41:24;22.65;;;8.27;;
22632;SDS011;11483;55.828;37.488;2022-09-27T10:43:56;20.38;;;7.88;;
22632;SDS011;11483;55.828;37.488;2022-09-27T10:46:26;20.95;;;7.70;;
22632;SDS011;11483;55.828;37.488;2022-09-27T10:51:53;15.15;;;6.47;;
22632;SDS011;11483;55.828;37.488;2022-09-27T10:54:25;27.73;;;6.57;;
22632;SDS011;11483;55.828;37.488;2022-09-27T10:59:24;13.63;;;6.05;;
22632;SDS011;11483;55.828;37.488;2022-09-27T11:01:54;11.70;;;6.90;;
22632;SDS011;11483;55.828;37.488;2022-09-27T11:04:29;15.73;;;6.78;;
22632;SDS011;11483;55.828;37.488;2022-09-27T11:07:14;12.20;;;6.75;;
22632;SDS011;11483;55.828;37.488;2022-09-27T11:09:52;11.73;;;6.65;;
22632;SDS011;11483;55.828;37.488;2022-09-27T11:12:20;20.05;;;6.18;;
22632;SDS011;11483;55.828;37.488;2022-09-27T11:15:06;17.52;;;7.03;;
22632;SDS011;11483;55.828;37.488;2022-09-27T11:20:32;10.63;;;5.60;;
22632;SDS011;11483;55.828;37.488;2022-09-27T11:41:17;9.25;;;3.22;;
22632;SDS011;11483;55.828;37.488;2022-09-27T12:38:11;3.00;;;1.70;;
22632;SDS011;11483;55.828;37.488;2022-09-27T12:40:44;4.63;;;2.03;;
22632;SDS011;11483;55.828;37.488;2022-09-27T12:48:35;11.48;;;2.58;;
22632;SDS011;11483;55.828;37.488;2022-09-27T12:51:12;3.53;;;2.30;;
22632;SDS011;11483;55.828;37.488;2022-09-27T12:56:50;8.93;;;2.25;;
22632;SDS011;11483;55.828;37.488;2022-09-27T12:59:26;6.50;;;2.55;;
22632;SDS011;11483;55.828;37.488;2022-09-27T13:05:02;7.28;;;2.85;;
22632;SDS011;11483;55.828;37.488;2022-09-27T13:13:20;9.05;;;2.45;;
22632;SDS011;11483;55.828;37.488;2022-09-27T13:15:50;8.98;;;2.58;;
22632;SDS011;11483;55.828;37.488;2022-09-27T13:21:01;6.53;;;2.30;;
22632;SDS011;11483;55.828;37.488;2022-09-27T13:25:59;9.38;;;2.78;;
22632;SDS011;11483;55.828;37.488;2022-09-27T13:30:56;5.78;;;2.50;;
22632;SDS011;11483;55.828;37.488;2022-09-27T13:59:40;9.45;;;2.85;;
22632;SDS011;11483;55.828;37.488;2022-09-27T14:04:48;11.07;;;3.70;;
22632;SDS011;11483;55.828;37.488;2022-09-27T14:07:48;8.00;;;3.30;;
22632;SDS011;11483;55.828;37.488;2022-09-27T14:10:16;10.33;;;3.80;;
22632;SDS011;11483;55.828;37.488;2022-09-27T14:12:45;9.00;;;3.33;;
22632;SDS011;11483;55.828;37.488;2022-09-27T14:15:17;10.48;;;3.60;;
22632;SDS011;11483;55.828;37.488;2022-09-27T14:17:46;13.35;;;3.72;;
22632;SDS011;11483;55.828;37.488;2022-09-27T14:20:32;11.45;;;4.38;;
22632;SDS011;11483;55.828;37.488;2022-09-27T14:23:12;9.32;;;4.55;;
22632;SDS011;11483;55.828;37.488;2022-09-27T14:25:44;6.60;;;3.83;;
22632;SDS011;11483;55.828;37.488;2022-09-27T15:18:42;9.80;;;3.00;;
22632;SDS011;11483;55.828;37.488;2022-09-27T15:21:15;6.82;;;3.22;;
22632;SDS011;11483;55.828;37.488;2022-09-27T15:29:02;10.40;;;3.53;;
22632;SDS011;11483;55.828;37.488;2022-09-27T15:31:32;8.85;;;3.35;;
22632;SDS011;11483;55.828;37.488;2022-09-27T15:34:00;13.45;;;3.00;;
22632;SDS011;11483;55.828;37.488;2022-09-27T15:37:01;6.53;;;3.08;;
22632;SDS011;11483;55.828;37.488;2022-09-27T15:39:31;12.00;;;2.83;;
22632;SDS011;11483;55.828;37.488;2022-09-27T15:49:57;9.70;;;2.88;;
22632;SDS011;11483;55.828;37.488;2022-09-27T15:52:39;14.02;;;3.10;;
22632;SDS011;11483;55.828;37.488;2022-09-27T15:55:13;6.88;;;3.35;;
22632;SDS011;11483;55.828;37.488;2022-09-27T15:57:41;7.07;;;3.03;;
22632;SDS011;11483;55.828;37.488;2022-09-27T16:00:12;7.78;;;2.92;;
22632;SDS011;11483;55.828;37.488;2022-09-27T16:02:43;13.68;;;3.25;;
22632;SDS011;11483;55.828;37.488;2022-09-27T16:05:09;5.50;;;2.92;;
22632;SDS011;11483;55.828;37.488;2022-09-27T16:07:36;7.22;;;3.17;;
22632;SDS011;11483;55.828;37.488;2022-09-27T16:12:39;11.90;;;4.30;;
22632;SDS011;11483;55.828;37.488;2022-09-27T16:15:05;10.27;;;3.55;;
22632;SDS011;11483;55.828;37.488;2022-09-27T16:17:32;10.52;;;3.63;;
22632;SDS011;11483;55.828;37.488;2022-09-27T16:20:02;13.35;;;3.47;;
22632;SDS011;11483;55.828;37.488;2022-09-27T16:22:28;8.05;;;4.15;;
22632;SDS011;11483;55.828;37.488;2022-09-27T16:24:54;12.18;;;4.70;;
22632;SDS011;11483;55.828;37.488;2022-09-27T16:27:24;13.10;;;4.22;;
22632;SDS011;11483;55.828;37.488;2022-09-27T16:29:54;11.43;;;4.00;;
22632;SDS011;11483;55.828;37.488;2022-09-27T16:32:22;14.77;;;5.00;;
22632;SDS011;11483;55.828;37.488;2022-09-27T16:34:48;10.32;;;4.38;;
22632;SDS011;11483;55.828;37.488;2022-09-27T16:37:14;10.20;;;4.88;;
22632;SDS011;11483;55.828;37.488;2022-09-27T16:39:40;20.42;;;5.05;;
22632;SDS011;11483;55.828;37.488;2022-09-27T16:42:05;9.27;;;4.10;;
22632;SDS011;11483;55.828;37.488;2022-09-27T16:44:32;10.18;;;4.55;;
22632;SDS011;11483;55.828;37.488;2022-09-27T16:47:03;13.23;;;4.20;;
22632;SDS011;11483;55.828;37.488;2022-09-27T16:49:31;6.95;;;3.50;;
22632;SDS011;11483;55.828;37.488;2022-09-27T16:52:16;13.95;;;4.10;;
22632;SDS011;11483;55.828;37.488;2022-09-27T16:54:42;12.10;;;3.95;;
22632;SDS011;11483;55.828;37.488;2022-09-27T16:57:08;10.85;;;3.97;;
22632;SDS011;11483;55.828;37.488;2022-09-27T16:59:34;5.90;;;3.63;;
22632;SDS011;11483;55.828;37.488;2022-09-27T17:02:00;10.65;;;4.22;;
22632;SDS011;11483;55.828;37.488;2022-09-27T17:04:29;9.40;;;3.47;;
22632;SDS011;11483;55.828;37.488;2022-09-27T17:06:56;7.55;;;3.67;;
22632;SDS011;11483;55.828;37.488;2022-09-27T17:09:22;9.93;;;4.40;;
22632;SDS011;11483;55.828;37.488;2022-09-27T17:11:49;9.85;;;3.33;;
22632;SDS011;11483;55.828;37.488;2022-09-27T17:14:15;15.57;;;4.40;;
22632;SDS011;11483;55.828;37.488;2022-09-27T17:16:42;9.77;;;4.00;;
22632;SDS011;11483;55.828;37.488;2022-09-27T17:19:08;8.25;;;4.28;;
22632;SDS011;11483;55.828;37.488;2022-09-27T17:21:35;9.27;;;3.90;;
22632;SDS011;11483;55.828;37.488;2022-09-27T17:24:01;12.43;;;4.35;;
22632;SDS011;11483;55.828;37.488;2022-09-27T17:26:27;8.23;;;4.07;;
22632;SDS011;11483;55.828;37.488;2022-09-27T17:28:57;13.05;;;4.90;;
22632;SDS011;11483;55.828;37.488;2022-09-27T17:31:25;10.32;;;4.15;;
22632;SDS011;11483;55.828;37.488;2022-09-27T17:33:53;10.43;;;4.32;;
22632;SDS011;11483;55.828;37.488;2022-09-27T17:36:20;10.55;;;4.35;;
22632;SDS011;11483;55.828;37.488;2022-09-27T17:38:49;11.02;;;4.75;;
22632;SDS011;11483;55.828;37.488;2022-09-27T17:41:17;10.18;;;4.50;;
22632;SDS011;11483;55.828;37.488;2022-09-27T17:43:47;8.80;;;4.07;;
22632;SDS011;11483;55.828;37.488;2022-09-27T17:46:17;13.15;;;4.43;;
22632;SDS011;11483;55.828;37.488;2022-09-27T17:48:44;6.63;;;4.15;;
22632;SDS011;11483;55.828;37.488;2022-09-27T17:51:29;12.50;;;4.20;;
22632;SDS011;11483;55.828;37.488;2022-09-27T17:53:56;13.27;;;4.32;;
22632;SDS011;11483;55.828;37.488;2022-09-27T17:56:25;17.05;;;4.20;;
22632;SDS011;11483;55.828;37.488;2022-09-27T17:58:53;8.05;;;4.30;;
22632;SDS011;11483;55.828;37.488;2022-09-27T18:01:20;15.68;;;4.30;;
22632;SDS011;11483;55.828;37.488;2022-09-27T18:03:50;14.00;;;5.00;;
22632;SDS011;11483;55.828;37.488;2022-09-27T18:06:18;8.15;;;4.60;;
22632;SDS011;11483;55.828;37.488;2022-09-27T18:08:45;10.13;;;4.88;;
22632;SDS011;11483;55.828;37.488;2022-09-27T18:11:12;10.90;;;4.97;;
22632;SDS011;11483;55.828;37.488;2022-09-27T18:13:40;9.93;;;4.25;;
22632;SDS011;11483;55.828;37.488;2022-09-27T18:16:11;9.93;;;4.90;;
22632;SDS011;11483;55.828;37.488;2022-09-27T18:18:41;13.32;;;4.47;;
22632;SDS011;11483;55.828;37.488;2022-09-27T18:21:12;9.27;;;4.53;;
22632;SDS011;11483;55.828;37.488;2022-09-27T18:23:41;9.20;;;4.45;;
22632;SDS011;11483;55.828;37.488;2022-09-27T18:26:09;12.32;;;5.13;;
22632;SDS011;11483;55.828;37.488;2022-09-27T18:28:36;8.88;;;5.07;;
22632;SDS011;11483;55.828;37.488;2022-09-27T18:31:04;8.68;;;4.45;;
22632;SDS011;11483;55.828;37.488;2022-09-27T18:33:32;11.38;;;4.68;;
22632;SDS011;11483;55.828;37.488;2022-09-27T18:38:32;12.63;;;4.20;;
22632;SDS011;11483;55.828;37.488;2022-09-27T18:41:09;12.13;;;4.53;;
22632;SDS011;11483;55.828;37.488;2022-09-27T18:43:42;11.07;;;4.32;;
22632;SDS011;11483;55.828;37.488;2022-09-27T18:46:11;11.38;;;4.05;;
22632;SDS011;11483;55.828;37.488;2022-09-27T18:48:39;10.57;;;4.65;;
22632;SDS011;11483;55.828;37.488;2022-09-27T18:51:06;8.68;;;4.88;;
22632;SDS011;11483;55.828;37.488;2022-09-27T18:53:39;11.30;;;4.32;;
22632;SDS011;11483;55.828;37.488;2022-09-27T18:56:07;9.00;;;4.45;;
22632;SDS011;11483;55.828;37.488;2022-09-27T18:58:40;13.23;;;5.00;;
22632;SDS011;11483;55.828;37.488;2022-09-27T19:01:07;12.38;;;5.00;;
22632;SDS011;11483;55.828;37.488;2022-09-27T19:03:34;16.10;;;5.45;;
22632;SDS011;11483;55.828;37.488;2022-09-27T19:06:02;16.60;;;5.35;;
22632;SDS011;11483;55.828;37.488;2022-09-27T19:08:30;13.60;;;5.40;;
22632;SDS011;11483;55.828;37.488;2022-09-27T19:11:30;12.35;;;5.47;;
22632;SDS011;11483;55.828;37.488;2022-09-27T19:13:50;18.67;;;5.80;;
22632;SDS011;11483;55.828;37.488;2022-09-27T19:16:18;11.57;;;5.03;;
22632;SDS011;11483;55.828;37.488;2022-09-27T19:18:45;11.25;;;5.35;;
22632;SDS011;11483;55.828;37.488;2022-09-27T19:21:12;13.90;;;5.60;;
22632;SDS011;11483;55.828;37.488;2022-09-27T19:23:40;11.70;;;5.18;;
22632;SDS011;11483;55.828;37.488;2022-09-27T19:26:07;9.63;;;4.88;;
22632;SDS011;11483;55.828;37.488;2022-09-27T19:28:37;12.30;;;5.47;;
22632;SDS011;11483;55.828;37.488;2022-09-27T19:31:04;15.82;;;5.63;;
22632;SDS011;11483;55.828;37.488;2022-09-27T19:33:49;15.02;;;5.10;;
22632;SDS011;11483;55.828;37.488;2022-09-27T19:36:15;11.63;;;5.68;;
22632;SDS011;11483;55.828;37.488;2022-09-27T19:38:42;13.02;;;4.95;;
22632;SDS011;11483;55.828;37.488;2022-09-27T19:41:09;10.25;;;5.43;;
22632;SDS011;11483;55.828;37.488;2022-09-27T19:43:36;15.55;;;6.03;;
22632;SDS011;11483;55.828;37.488;2022-09-27T19:46:13;20.17;;;5.88;;
22632;SDS011;11483;55.828;37.488;2022-09-27T19:48:41;23.13;;;6.70;;
22632;SDS011;11483;55.828;37.488;2022-09-27T19:51:08;12.88;;;6.90;;
22632;SDS011;11483;55.828;37.488;2022-09-27T19:53:41;17.15;;;6.43;;
22632;SDS011;11483;55.828;37.488;2022-09-27T19:56:07;15.65;;;6.57;;
22632;SDS011;11483;55.828;37.488;2022-09-27T19:58:35;16.85;;;7.38;;